createdAt,value
2023-05-12T11:18:20.590Z,953.3892
2023-05-12T11:19:22.366Z,953.3823
2023-05-12T11:20:24.322Z,953.4108
2023-05-12T11:21:26.224Z,953.4138
2023-05-12T11:22:28.253Z,953.4277
2023-05-12T11:46:50.653Z,953.2667
2023-05-12T11:47:52.566Z,953.2369
2023-05-12T11:48:54.447Z,953.2430
2023-05-12T11:49:56.424Z,953.2438
2023-05-12T11:50:58.289Z,953.2570
2023-05-12T11:52:00.190Z,953.2592
2023-05-12T11:53:02.129Z,953.2600
2023-05-12T11:54:04.041Z,953.2662
2023-05-12T11:55:06.189Z,953.2292
2023-05-12T11:56:07.897Z,953.1954
2023-05-12T11:57:09.800Z,953.1977
2023-05-12T11:58:11.725Z,953.1730
2023-05-12T11:59:13.655Z,953.1962
2023-05-12T12:00:15.574Z,953.1970
2023-05-12T12:01:17.600Z,953.1846
2023-05-12T12:02:19.466Z,953.1800
2023-05-12T12:03:21.481Z,953.1646
2023-05-12T12:04:23.285Z,953.1653
2023-05-12T12:05:25.177Z,953.1738
2023-05-12T12:06:27.159Z,953.1823
2023-05-12T12:07:29.000Z,953.1800
2023-05-12T12:08:30.941Z,953.1838
2023-05-12T12:09:32.850Z,953.1677
2023-05-12T12:10:34.751Z,953.1616
2023-05-12T12:11:36.667Z,953.1569
2023-05-12T12:12:38.752Z,953.1485
2023-05-12T12:13:40.506Z,953.1223
2023-05-12T12:14:42.467Z,953.1392
2023-05-12T12:15:44.376Z,953.1192
2023-05-12T12:16:46.270Z,953.1270
2023-05-12T12:17:48.475Z,953.1554
2023-05-12T12:18:50.139Z,953.1584
2023-05-12T12:19:52.020Z,953.1462
2023-05-12T12:20:53.951Z,953.1431
2023-05-12T12:21:55.866Z,953.1285
2023-05-12T12:22:57.782Z,953.1223
2023-05-12T12:23:59.808Z,953.1054
2023-05-12T12:25:01.605Z,953.0877
2023-05-12T12:26:03.544Z,953.0808
2023-05-12T12:27:05.454Z,953.0777
2023-05-12T12:28:07.369Z,953.0600
2023-05-12T12:29:09.291Z,953.0916
2023-05-12T12:30:11.433Z,953.1031
2023-05-12T12:31:13.113Z,953.0900
2023-05-12T12:32:15.056Z,953.0815
2023-05-12T12:33:19.649Z,953.0615
2023-05-12T12:34:18.868Z,953.0577
2023-05-12T12:35:21.019Z,953.0600
2023-05-12T12:36:22.846Z,953.0277
2023-05-12T12:37:24.634Z,953.0323
2023-05-12T12:38:26.546Z,953.0423
2023-05-12T12:39:28.480Z,953.0185
2023-05-12T12:40:30.392Z,953.0100
2023-05-12T12:41:32.305Z,952.9930
2023-05-12T12:42:34.369Z,952.9908
2023-05-12T12:43:36.144Z,952.9800
2023-05-12T12:44:38.064Z,952.9684
2023-05-12T12:45:39.996Z,952.9661
2023-05-12T12:46:41.957Z,952.9684
2023-05-12T12:47:43.869Z,952.9547
2023-05-12T12:48:45.860Z,952.9515
2023-05-12T12:49:47.665Z,952.9508
2023-05-12T12:50:49.592Z,952.9562
2023-05-12T12:51:51.510Z,952.9515
2023-05-12T12:52:53.440Z,952.9330
2023-05-12T12:53:55.349Z,952.9192
2023-05-12T12:54:57.365Z,952.9300
2023-05-12T12:55:59.173Z,952.9315
2023-05-12T12:57:01.105Z,952.9261
2023-05-12T12:58:03.011Z,952.9377
2023-05-12T12:59:04.947Z,952.9370
2023-05-12T13:00:06.970Z,952.9354
2023-05-12T13:01:08.808Z,952.9531
2023-05-12T13:02:10.723Z,952.9515
2023-05-12T13:03:12.638Z,952.9562
2023-05-12T13:04:14.519Z,952.9592
2023-05-12T13:05:16.515Z,952.9608
2023-05-12T13:06:18.474Z,952.9477
2023-05-12T13:07:20.275Z,952.9292
2023-05-12T13:08:22.204Z,952.9246
2023-05-12T13:09:24.122Z,952.9438
2023-05-12T13:10:26.048Z,952.9400
2023-05-12T13:11:28.068Z,952.9446
2023-05-12T13:12:29.873Z,952.9508
2023-05-12T13:13:31.781Z,952.9623
2023-05-12T13:14:33.706Z,952.9615
2023-05-12T13:15:35.621Z,952.9723
2023-05-12T13:16:37.557Z,952.9877
2023-05-12T13:17:39.588Z,953.0177
2023-05-12T13:18:41.425Z,953.0169
2023-05-12T13:19:43.302Z,952.9785
2023-05-12T13:20:45.233Z,952.9723
2023-05-12T13:21:47.137Z,952.9738
2023-05-12T13:22:49.062Z,952.9531
2023-05-12T13:23:51.127Z,952.9362
2023-05-12T13:24:52.899Z,952.9277
2023-05-12T13:25:54.800Z,952.9116
2023-05-12T13:26:56.745Z,952.9400
2023-05-12T13:27:58.640Z,952.9585
2023-05-12T13:29:00.567Z,952.9562
2023-05-12T13:30:02.597Z,952.9300
2023-05-12T13:31:04.438Z,952.9200
2023-05-12T13:32:06.323Z,952.8877
2023-05-12T13:33:08.307Z,952.8770
2023-05-12T13:34:10.169Z,952.8754
2023-05-12T13:35:12.071Z,952.8654
2023-05-12T13:36:14.104Z,952.8408
2023-05-12T13:37:15.922Z,952.8408
2023-05-12T13:38:17.831Z,952.8585
2023-05-12T13:39:19.911Z,952.8362
2023-05-12T13:40:21.659Z,952.8339
2023-05-12T13:41:23.626Z,952.8185
2023-05-12T13:42:25.608Z,952.7938
2023-05-12T13:43:27.431Z,952.7869
2023-05-12T13:44:29.332Z,952.8038
2023-05-12T13:45:31.270Z,952.8130
2023-05-12T13:46:33.225Z,952.8008
2023-05-12T13:47:35.137Z,952.7854
2023-05-12T13:48:37.159Z,952.7631
2023-05-12T13:49:38.929Z,952.7608
2023-05-12T13:50:40.859Z,952.7508
2023-05-12T13:51:42.768Z,952.7508
2023-05-12T13:52:44.669Z,952.7408
2023-05-12T13:53:46.607Z,952.7338
2023-05-12T13:54:48.625Z,952.7246
2023-05-12T13:55:50.500Z,952.7031
2023-05-12T13:56:52.335Z,952.6808
2023-05-12T13:57:54.250Z,952.6838
2023-05-12T13:58:56.191Z,952.6854
2023-05-12T13:59:58.219Z,952.6992
2023-05-12T14:01:00.007Z,952.7062
2023-05-12T14:02:02.099Z,952.6800
2023-05-12T14:03:03.904Z,952.6815
2023-05-12T14:04:05.781Z,952.6815
2023-05-12T14:05:07.797Z,952.7023
2023-05-12T14:06:09.731Z,952.6862
2023-05-12T14:07:11.525Z,952.6761
2023-05-12T14:08:13.426Z,952.6584
2023-05-12T14:09:15.372Z,952.6561
2023-05-12T14:10:17.272Z,952.6539
2023-05-12T14:11:19.266Z,952.6608
2023-05-12T14:12:21.739Z,952.6262
2023-05-12T14:13:23.021Z,952.6439
2023-05-12T14:14:24.962Z,952.6477
2023-05-12T14:15:40.103Z,952.6577
2023-05-12T14:16:28.804Z,952.6616
2023-05-12T14:17:30.863Z,952.6769
2023-05-12T14:18:32.661Z,952.6715
2023-05-12T14:19:34.547Z,952.6546
2023-05-12T14:20:36.451Z,952.6469
2023-05-12T14:21:38.392Z,952.6146
2023-05-12T14:22:40.307Z,952.6085
2023-05-12T14:23:42.335Z,952.6285
2023-05-12T14:24:44.127Z,952.6308
2023-05-12T14:25:46.070Z,952.6308
2023-05-12T14:26:48.048Z,952.6270
2023-05-12T14:27:50.123Z,952.6400
2023-05-12T14:28:51.820Z,952.6400
2023-05-12T14:29:53.898Z,952.6516
2023-05-12T14:30:55.673Z,952.6492
2023-05-12T14:31:57.638Z,952.6415
2023-05-12T14:32:59.528Z,952.6246
2023-05-12T14:34:01.436Z,952.6246
2023-05-12T14:35:03.335Z,952.6177
2023-05-12T14:36:07.831Z,952.6315
2023-05-12T14:37:07.283Z,952.6223
2023-05-12T14:38:09.106Z,952.6270
2023-05-12T14:39:11.028Z,952.5969
2023-05-12T14:40:12.924Z,952.5900
2023-05-12T14:41:14.858Z,952.6092
2023-05-12T14:42:16.870Z,952.6315
2023-05-12T14:43:18.700Z,952.6385
2023-05-12T14:44:20.625Z,952.6238
2023-05-12T14:45:22.848Z,952.5984
2023-05-12T14:46:24.472Z,952.5908
2023-05-12T14:47:26.383Z,952.6031
2023-05-12T14:48:28.385Z,952.6008
2023-05-12T14:49:30.241Z,952.6046
2023-05-12T14:50:32.135Z,952.6015
2023-05-12T14:51:34.042Z,952.5977
2023-05-12T14:52:35.956Z,952.5846
2023-05-12T14:53:37.976Z,952.5992
2023-05-12T14:54:39.812Z,952.6077
2023-05-12T14:55:41.728Z,952.6200
2023-05-12T14:56:43.671Z,952.5992
2023-05-12T14:57:45.552Z,952.6223
2023-05-12T14:58:47.474Z,952.6177
2023-05-12T14:59:49.503Z,952.6108
2023-05-12T15:00:51.354Z,952.6307
2023-05-12T15:01:53.247Z,952.6592
2023-05-12T15:02:55.233Z,952.6646
2023-05-12T15:03:57.068Z,952.6592
2023-05-12T15:04:59.097Z,952.6462
2023-05-12T15:07:02.845Z,952.7192
2023-05-12T15:08:04.761Z,952.7338
2023-05-12T15:09:06.681Z,952.7454
2023-05-12T15:10:08.599Z,952.7408
2023-05-12T15:11:10.605Z,952.7531
2023-05-12T15:12:12.467Z,952.7608
2023-05-12T15:13:14.365Z,952.7723
2023-05-12T15:14:16.291Z,952.7708
2023-05-12T15:15:18.355Z,952.7831
2023-05-12T15:16:20.265Z,952.7877
2023-05-12T15:17:22.057Z,952.7908
2023-05-12T15:18:24.058Z,952.7961
2023-05-12T15:19:25.904Z,952.8030
2023-05-12T15:20:27.814Z,952.8138
2023-05-12T15:21:29.744Z,952.8054
2023-05-12T15:22:31.669Z,952.8100
2023-05-12T15:23:33.576Z,952.8046
2023-05-12T15:24:35.482Z,952.8130
2023-05-12T15:25:37.409Z,952.8223
2023-05-12T15:26:40.249Z,952.8115
2023-05-12T15:27:41.254Z,952.8431
2023-05-12T15:28:43.178Z,952.8523
2023-05-12T15:29:45.079Z,952.8531
2023-05-12T15:30:47.025Z,952.8754
2023-05-12T15:31:49.028Z,952.8700
2023-05-12T15:32:50.881Z,952.8708
2023-05-12T15:33:52.794Z,952.8823
2023-05-12T15:34:54.762Z,952.8746
2023-05-12T15:35:56.604Z,952.8738
2023-05-12T15:36:58.541Z,952.8923
2023-05-12T15:38:00.466Z,952.8877
2023-05-12T15:39:02.427Z,952.9084
2023-05-12T15:40:04.313Z,952.8977
2023-05-12T15:41:06.216Z,952.8992
2023-05-12T15:42:08.539Z,952.9039
2023-05-12T15:43:10.054Z,952.8923
2023-05-12T15:44:11.969Z,952.8947
2023-05-12T15:45:13.899Z,952.8923
2023-05-12T15:46:15.835Z,952.8846
2023-05-12T15:47:17.721Z,952.8754
2023-05-12T15:48:19.691Z,952.8723
2023-05-12T15:49:21.639Z,952.8631
2023-05-12T15:50:23.550Z,952.8515
2023-05-12T15:51:25.485Z,952.8439
2023-05-12T15:52:27.405Z,952.8446
2023-05-12T15:53:29.322Z,952.8477
2023-05-12T15:54:31.264Z,952.8615
2023-05-12T15:55:33.169Z,952.8646
2023-05-12T15:56:35.087Z,952.8692
2023-05-12T15:57:36.998Z,952.8623
2023-05-12T15:58:38.933Z,952.8561
2023-05-12T15:59:40.859Z,952.8561
2023-05-12T16:00:42.795Z,952.8546
2023-05-12T16:01:44.683Z,952.8561
2023-05-12T16:02:46.670Z,952.8492
2023-05-12T16:03:48.575Z,952.8477
2023-05-12T16:04:50.462Z,952.8416
2023-05-12T16:05:52.361Z,952.8492
2023-05-12T16:06:54.359Z,952.8461
2023-05-12T16:07:56.188Z,952.8439
2023-05-12T16:08:58.125Z,952.8385
2023-05-12T16:10:00.065Z,952.8484
2023-05-12T16:11:01.990Z,952.8431
2023-05-12T16:12:03.888Z,952.8377
2023-05-12T16:13:05.789Z,952.8239
2023-05-12T16:14:07.711Z,952.8392
2023-05-12T16:15:09.659Z,952.8231
2023-05-12T16:16:11.572Z,952.8215
2023-05-12T16:17:13.491Z,952.8431
2023-05-12T16:18:15.450Z,952.8492
2023-05-12T16:19:17.314Z,952.8308
2023-05-12T16:20:19.248Z,952.8308
2023-05-12T16:21:21.170Z,952.8262
2023-05-12T16:22:23.090Z,952.8231
2023-05-12T16:23:25.001Z,952.8339
2023-05-12T16:24:26.911Z,952.8339
2023-05-12T16:25:28.844Z,952.8392
2023-05-12T16:26:30.768Z,952.8354
2023-05-12T16:27:32.681Z,952.8146
2023-05-12T16:28:34.609Z,952.8154
2023-05-12T16:29:36.534Z,952.8138
2023-05-12T16:30:38.458Z,952.8138
2023-05-12T16:31:40.402Z,952.8208
2023-05-12T16:32:42.334Z,952.8285
2023-05-12T16:33:44.217Z,952.8392
2023-05-12T16:34:46.124Z,952.8369
2023-05-12T16:35:48.044Z,952.8339
2023-05-12T16:36:49.964Z,952.8454
2023-05-12T16:37:51.898Z,952.8638
2023-05-12T16:38:53.836Z,952.8770
2023-05-12T16:39:55.728Z,952.8823
2023-05-12T16:40:57.657Z,952.8885
2023-05-12T16:41:59.574Z,952.8869
2023-05-12T16:43:01.505Z,952.9308
2023-05-12T16:44:03.428Z,952.9385
2023-05-12T16:45:05.360Z,952.9446
2023-05-12T16:46:07.281Z,952.9400
2023-05-12T16:47:09.186Z,952.9477
2023-05-12T16:48:11.121Z,952.9400
2023-05-12T16:49:13.039Z,952.9446
2023-05-12T16:50:14.959Z,952.9423
2023-05-12T16:51:16.877Z,952.9470
2023-05-12T16:52:18.792Z,952.9547
2023-05-12T16:53:20.712Z,952.9438
2023-05-12T16:54:22.798Z,952.9400
2023-05-12T16:55:24.538Z,952.9292
2023-05-12T16:56:26.512Z,952.9192
2023-05-12T16:57:28.396Z,952.9246
2023-05-12T16:58:30.316Z,952.9230
2023-05-12T16:59:32.240Z,952.9185
2023-05-12T17:00:34.140Z,952.9230
2023-05-12T17:01:36.169Z,952.9285
2023-05-12T17:02:38.058Z,952.9277
2023-05-12T17:03:40.030Z,952.9177
2023-05-12T17:04:41.808Z,952.9238
2023-05-12T17:05:43.730Z,952.9308
2023-05-12T17:06:45.654Z,952.9269
2023-05-12T17:07:47.622Z,952.9315
2023-05-12T17:08:49.518Z,952.9285
2023-05-12T17:09:51.426Z,952.9346
2023-05-12T17:10:53.342Z,952.9377
2023-05-12T17:11:55.251Z,952.9300
2023-05-12T17:12:57.185Z,952.9330
2023-05-12T17:13:59.119Z,952.9585
2023-05-12T17:15:07.638Z,952.9684
2023-05-12T17:16:02.972Z,952.9700
2023-05-12T17:17:04.886Z,952.9700
2023-05-12T17:18:06.884Z,952.9861
2023-05-12T17:20:10.616Z,953.0185
2023-05-12T17:21:12.542Z,953.0339
2023-05-12T17:22:14.466Z,953.0546
2023-05-12T17:23:16.382Z,953.0615
2023-05-12T17:24:18.294Z,953.0746
2023-05-12T17:25:20.426Z,953.0777
2023-05-12T17:26:22.143Z,953.0916
2023-05-12T17:27:24.067Z,953.0870
2023-05-12T17:28:25.982Z,953.0792
2023-05-12T17:29:27.886Z,953.0862
2023-05-12T17:30:29.804Z,953.1130
2023-05-12T17:31:31.790Z,953.1031
2023-05-12T17:32:33.726Z,953.1092
2023-05-12T17:33:35.578Z,953.1169
2023-05-12T17:34:37.496Z,953.1354
2023-05-12T17:35:39.416Z,953.1454
2023-05-12T17:36:41.324Z,953.1531
2023-05-12T17:37:43.281Z,953.1723
2023-05-12T17:38:45.183Z,953.1761
2023-05-12T17:39:47.084Z,953.1838
2023-05-12T17:40:49.012Z,953.2008
2023-05-12T17:41:50.933Z,953.1946
2023-05-12T17:42:52.966Z,953.1892
2023-05-12T17:43:54.770Z,953.1908
2023-05-12T17:44:56.699Z,953.1900
2023-05-12T17:45:58.599Z,953.1954
2023-05-12T17:47:00.542Z,953.1915
2023-05-12T17:48:02.517Z,953.1900
2023-05-12T17:49:04.371Z,953.2077
2023-05-12T17:50:06.295Z,953.2208
2023-05-12T17:51:08.198Z,953.2292
2023-05-12T17:52:10.117Z,953.2338
2023-05-12T17:53:12.033Z,953.2469
2023-05-12T17:54:13.954Z,953.2577
2023-05-12T17:55:15.873Z,953.2646
2023-05-12T17:56:17.809Z,953.2723
2023-05-12T17:57:19.704Z,953.2808
2023-05-12T17:58:21.628Z,953.2869
2023-05-12T17:59:23.551Z,953.2877
2023-05-12T18:00:25.462Z,953.2800
2023-05-12T18:01:27.469Z,953.2700
2023-05-12T18:02:29.452Z,953.2700
2023-05-12T18:03:31.266Z,953.2769
2023-05-12T18:04:33.153Z,953.2792
2023-05-12T18:05:36.506Z,953.2892
2023-05-12T18:06:36.989Z,953.2969
2023-05-12T18:07:38.908Z,953.2908
2023-05-12T18:08:40.834Z,953.2915
2023-05-12T18:09:42.730Z,953.3062
2023-05-12T18:10:44.663Z,953.3162
2023-05-12T18:11:46.587Z,953.3331
2023-05-12T18:12:48.511Z,953.3431
2023-05-12T18:13:50.403Z,953.3554
2023-05-12T18:14:52.337Z,953.3715
2023-05-12T18:15:54.266Z,953.3792
2023-05-12T18:16:56.230Z,953.3785
2023-05-12T18:17:58.118Z,953.3846
2023-05-12T18:19:00.014Z,953.3869
2023-05-12T18:20:01.920Z,953.3885
2023-05-12T18:21:03.857Z,953.3923
2023-05-12T18:22:05.746Z,953.4000
2023-05-12T18:23:07.685Z,953.4069
2023-05-12T18:24:09.576Z,953.4215
2023-05-12T18:25:11.508Z,953.4338
2023-05-12T18:26:13.464Z,953.4477
2023-05-12T18:27:15.362Z,953.4592
2023-05-12T18:28:17.254Z,953.4585
2023-05-12T18:29:19.170Z,953.4631
2023-05-12T18:30:21.113Z,953.4731
2023-05-12T18:31:23.046Z,953.4869
2023-05-12T18:32:26.312Z,953.4977
2023-05-12T18:33:26.857Z,953.4985
2023-05-12T18:34:28.754Z,953.5077
2023-05-12T18:35:30.676Z,953.5215
2023-05-12T18:36:32.620Z,953.5300
2023-05-12T18:37:34.522Z,953.5339
2023-05-12T18:38:36.454Z,953.5308
2023-05-12T18:39:38.372Z,953.5300
2023-05-12T18:40:40.270Z,953.5270
2023-05-12T18:41:42.180Z,953.5339
2023-05-12T18:42:44.158Z,953.5369
2023-05-12T18:43:46.048Z,953.5354
2023-05-12T18:44:47.943Z,953.5400
2023-05-12T18:45:49.871Z,953.5323
2023-05-12T18:46:51.839Z,953.5400
2023-05-12T18:47:53.716Z,953.5254
2023-05-12T18:48:55.646Z,953.5354
2023-05-12T18:49:57.555Z,953.5469
2023-05-12T18:50:59.463Z,953.5515
2023-05-12T18:52:01.399Z,953.5569
2023-05-12T18:53:03.320Z,953.5654
2023-05-12T18:54:05.235Z,953.5770
2023-05-12T18:55:07.176Z,953.5815
2023-05-12T18:56:09.064Z,953.5854
2023-05-12T18:57:10.993Z,953.6031
2023-05-12T18:58:12.898Z,953.6223
2023-05-12T18:59:14.838Z,953.6454
2023-05-12T19:00:16.758Z,953.6633
2023-05-12T19:01:18.738Z,953.6877
2023-05-12T19:02:20.600Z,953.7069
2023-05-12T19:03:22.503Z,953.7246
2023-05-12T19:04:24.431Z,953.7477
2023-05-12T19:05:26.387Z,953.7546
2023-05-12T19:06:28.281Z,953.7685
2023-05-12T19:07:30.216Z,953.7792
2023-05-12T19:08:32.103Z,953.7877
2023-05-12T19:09:34.027Z,953.8054
2023-05-12T19:10:38.611Z,953.8231
2023-05-12T19:11:37.874Z,953.8416
2023-05-12T19:12:39.805Z,953.8630
2023-05-12T19:13:41.718Z,953.8692
2023-05-12T19:14:43.629Z,953.8939
2023-05-12T19:15:45.596Z,953.9192
2023-05-12T19:16:47.544Z,953.9492
2023-05-12T19:17:49.420Z,953.9908
2023-05-12T19:18:51.400Z,954.0015
2023-05-12T19:19:53.235Z,954.0038
2023-05-12T19:20:55.139Z,954.0038
2023-05-12T19:21:57.060Z,954.0169
2023-05-12T19:22:58.998Z,954.0469
2023-05-12T19:24:00.905Z,954.0308
2023-05-12T19:25:02.825Z,954.0485
2023-05-12T19:26:04.724Z,954.0361
2023-05-12T19:27:06.640Z,954.0538
2023-05-12T19:28:08.607Z,954.0677
2023-05-12T19:29:10.514Z,954.0847
2023-05-12T19:30:12.415Z,954.0992
2023-05-12T19:31:14.323Z,954.1370
2023-05-12T19:32:16.339Z,954.1569
2023-05-12T19:33:18.199Z,954.1677
2023-05-12T19:34:20.100Z,954.1646
2023-05-12T19:35:22.205Z,954.1769
2023-05-12T19:36:23.925Z,954.1862
2023-05-12T19:37:25.849Z,954.1946
2023-05-12T19:38:27.741Z,954.1862
2023-05-12T19:39:29.677Z,954.1830
2023-05-12T19:40:31.711Z,954.1815
2023-05-12T19:41:33.510Z,954.1838
2023-05-12T19:42:35.414Z,954.1938
2023-05-12T19:43:37.337Z,954.1885
2023-05-12T19:44:39.285Z,954.1985
2023-05-12T19:45:41.200Z,954.1985
2023-05-12T19:46:43.103Z,954.1946
2023-05-12T19:47:45.020Z,954.2031
2023-05-12T19:48:46.922Z,954.2077
2023-05-12T19:49:48.854Z,954.2231
2023-05-12T19:50:50.786Z,954.2430
2023-05-12T19:51:52.689Z,954.2485
2023-05-12T19:52:54.606Z,954.2662
2023-05-12T19:53:56.605Z,954.2670
2023-05-12T19:54:58.511Z,954.2770
2023-05-12T19:56:00.456Z,954.2854
2023-05-12T19:57:02.385Z,954.2846
2023-05-12T19:58:04.291Z,954.2877
2023-05-12T19:59:06.207Z,954.2931
2023-05-12T20:00:08.120Z,954.2946
2023-05-12T20:01:10.054Z,954.2969
2023-05-12T20:02:11.970Z,954.2931
2023-05-12T20:03:13.918Z,954.3092
2023-05-12T20:04:15.790Z,954.3223
2023-05-12T20:05:17.765Z,954.3347
2023-05-12T20:06:19.621Z,954.3416
2023-05-12T20:07:21.548Z,954.3569
2023-05-12T20:08:23.475Z,954.3677
2023-05-12T20:09:25.372Z,954.3685
2023-05-12T20:10:27.302Z,954.3646
2023-05-12T20:11:29.200Z,954.3730
2023-05-12T20:12:31.140Z,954.3592
2023-05-12T20:13:33.056Z,954.3553
2023-05-12T20:14:34.978Z,954.3446
2023-05-12T20:15:36.874Z,954.3685
2023-05-12T20:16:38.820Z,954.3823
2023-05-12T20:17:40.803Z,954.3977
2023-05-12T20:18:42.676Z,954.4123
2023-05-12T20:19:44.556Z,954.4169
2023-05-12T20:20:46.461Z,954.4230
2023-05-12T20:21:48.382Z,954.4292
2023-05-12T20:22:50.308Z,954.4531
2023-05-12T20:23:52.230Z,954.4716
2023-05-12T20:24:54.149Z,954.4792
2023-05-12T20:25:56.082Z,954.4938
2023-05-12T20:26:57.966Z,954.5100
2023-05-12T20:27:59.919Z,954.5262
2023-05-12T20:29:01.835Z,954.5308
2023-05-12T20:30:03.736Z,954.5331
2023-05-12T20:31:05.778Z,954.5339
2023-05-12T20:32:07.570Z,954.5446
2023-05-12T20:33:09.500Z,954.5346
2023-05-12T20:34:11.405Z,954.5361
2023-05-12T20:35:13.327Z,954.5385
2023-05-12T20:36:15.224Z,954.5377
2023-05-12T20:37:17.156Z,954.5430
2023-05-12T20:38:19.066Z,954.5339
2023-05-12T20:39:20.983Z,954.5515
2023-05-12T20:40:22.903Z,954.5508
2023-05-12T20:41:24.806Z,954.5508
2023-05-12T20:42:26.733Z,954.5453
2023-05-12T20:43:28.650Z,954.5430
2023-05-12T20:44:30.571Z,954.5400
2023-05-12T20:45:32.473Z,954.5461
2023-05-12T20:46:36.437Z,954.5354
2023-05-12T20:47:36.456Z,954.5508
2023-05-12T20:48:38.229Z,954.5523
2023-05-12T20:49:40.149Z,954.5554
2023-05-12T20:50:42.084Z,954.5615
2023-05-12T20:51:43.967Z,954.5646
2023-05-12T20:52:45.904Z,954.5646
2023-05-12T20:53:47.794Z,954.5777
2023-05-12T20:54:49.718Z,954.5770
2023-05-12T20:55:51.633Z,954.5731
2023-05-12T20:56:53.562Z,954.5815
2023-05-12T20:57:55.471Z,954.5854
2023-05-12T20:58:57.377Z,954.5839
2023-05-12T20:59:59.298Z,954.5746
2023-05-12T21:01:01.229Z,954.5762
2023-05-12T21:02:03.207Z,954.5692
2023-05-12T21:03:12.216Z,954.5638
2023-05-12T21:04:16.527Z,954.5771
2023-05-12T21:05:18.620Z,954.5785
2023-05-12T21:06:20.348Z,954.5877
2023-05-12T21:07:22.262Z,954.6023
2023-05-12T21:08:24.159Z,954.6053
2023-05-12T21:09:26.104Z,954.6115
2023-05-12T21:10:28.002Z,954.6161
2023-05-12T21:11:29.905Z,954.6185
2023-05-12T21:12:31.835Z,954.6370
2023-05-12T21:13:33.772Z,954.6385
2023-05-12T21:14:35.670Z,954.6469
2023-05-12T21:15:37.581Z,954.6615
2023-05-12T21:16:39.634Z,954.6600
2023-05-12T21:17:41.566Z,954.6623
2023-05-12T21:18:43.385Z,954.6615
2023-05-12T21:19:45.276Z,954.6669
2023-05-12T21:20:47.240Z,954.6700
2023-05-12T21:21:49.097Z,954.6730
2023-05-12T21:22:51.025Z,954.6815
2023-05-12T21:23:52.996Z,954.6800
2023-05-12T21:24:54.850Z,954.6785
2023-05-12T21:25:56.770Z,954.6846
2023-05-12T21:26:58.704Z,954.6815
2023-05-12T21:28:00.605Z,954.6946
2023-05-12T21:29:02.572Z,954.7015
2023-05-12T21:30:04.457Z,954.7054
2023-05-12T21:31:06.355Z,954.7146
2023-05-12T21:32:08.599Z,954.7200
2023-05-12T21:33:10.286Z,954.7361
2023-05-12T21:34:12.178Z,954.7385
2023-05-12T21:35:14.033Z,954.7485
2023-05-12T21:36:15.965Z,954.7515
2023-05-12T21:37:17.869Z,954.7469
2023-05-12T21:38:19.804Z,954.7469
2023-05-12T21:39:21.728Z,954.7408
2023-05-12T21:40:23.706Z,954.7423
2023-05-12T21:41:25.548Z,954.7485
2023-05-12T21:42:27.496Z,954.7639
2023-05-12T21:43:29.406Z,954.7739
2023-05-12T21:44:31.332Z,954.7885
2023-05-12T21:45:33.244Z,954.8130
2023-05-12T21:46:35.271Z,954.8208
2023-05-12T21:47:37.114Z,954.8262
2023-05-12T21:48:38.984Z,954.8377
2023-05-12T21:49:40.918Z,954.8392
2023-05-12T21:50:42.835Z,954.8431
2023-05-12T21:51:44.751Z,954.8492
2023-05-12T21:52:46.705Z,954.8484
2023-05-12T21:53:48.593Z,954.8515
2023-05-12T21:54:50.525Z,954.8600
2023-05-12T21:55:52.428Z,954.8546
2023-05-12T21:56:54.346Z,954.8646
2023-05-12T21:57:56.253Z,954.8685
2023-05-12T21:58:58.218Z,954.8669
2023-05-12T22:00:00.126Z,954.8746
2023-05-12T22:01:02.021Z,954.8700
2023-05-12T22:02:03.948Z,954.8654
2023-05-12T22:03:05.896Z,954.8638
2023-05-12T22:04:07.817Z,954.8669
2023-05-12T22:05:09.758Z,954.8762
2023-05-12T22:06:11.623Z,954.8815
2023-05-12T22:07:13.517Z,954.8862
2023-05-12T22:08:15.447Z,954.9008
2023-05-12T22:09:17.361Z,954.9069
2023-05-12T22:10:19.452Z,954.9146
2023-05-12T22:11:21.229Z,954.9138
2023-05-12T22:12:23.116Z,954.9208
2023-05-12T22:13:25.023Z,954.9254
2023-05-12T22:14:26.936Z,954.9169
2023-05-12T22:15:28.870Z,954.9153
2023-05-12T22:16:40.680Z,954.9200
2023-05-12T22:17:32.750Z,954.9158
2023-05-12T22:18:34.679Z,954.9108
2023-05-12T22:19:36.536Z,954.9200
2023-05-12T22:20:38.453Z,954.9254
2023-05-12T22:21:40.379Z,954.9385
2023-05-12T22:22:42.339Z,954.9523
2023-05-12T22:23:44.220Z,954.9639
2023-05-12T22:24:46.134Z,954.9677
2023-05-12T22:25:48.032Z,954.9715
2023-05-12T22:26:49.970Z,954.9661
2023-05-12T22:27:51.871Z,954.9723
2023-05-12T22:28:53.836Z,954.9777
2023-05-12T22:29:55.721Z,954.9808
2023-05-12T22:30:57.665Z,954.9869
2023-05-12T22:31:59.551Z,954.9885
2023-05-12T22:33:01.584Z,954.9954
2023-05-12T22:34:03.384Z,955.0015
2023-05-12T22:35:05.339Z,955.0092
2023-05-12T22:36:07.243Z,955.0146
2023-05-12T22:37:09.146Z,955.0146
2023-05-12T22:38:11.094Z,955.0231
2023-05-12T22:39:13.001Z,955.0231
2023-05-12T22:40:14.905Z,955.0331
2023-05-12T22:41:16.825Z,955.0308
2023-05-12T22:42:18.763Z,955.0308
2023-05-12T22:43:20.659Z,955.0247
2023-05-12T22:44:22.596Z,955.0316
2023-05-12T22:45:24.520Z,955.0331
2023-05-12T22:46:26.480Z,955.0323
2023-05-12T22:47:28.348Z,955.0392
2023-05-12T22:48:32.099Z,955.0400
2023-05-12T22:49:32.191Z,955.0408
2023-05-12T22:50:34.098Z,955.0377
2023-05-12T22:51:36.025Z,955.0392
2023-05-12T22:52:37.944Z,955.0308
2023-05-12T22:53:39.864Z,955.0292
2023-05-12T22:54:41.781Z,955.0346
2023-05-12T22:55:43.701Z,955.0300
2023-05-12T22:56:45.629Z,955.0231
2023-05-12T22:57:47.538Z,955.0223
2023-05-12T22:58:49.470Z,955.0277
2023-05-12T22:59:51.371Z,955.0247
2023-05-12T23:00:53.330Z,955.0323
2023-05-12T23:01:55.221Z,955.0339
2023-05-12T23:02:57.191Z,955.0346
2023-05-12T23:03:59.068Z,955.0346
2023-05-12T23:05:00.963Z,955.0269
2023-05-12T23:06:02.908Z,955.0208
2023-05-12T23:07:05.903Z,955.0223
2023-05-12T23:08:06.764Z,955.0262
2023-05-12T23:09:08.635Z,955.0354
2023-05-12T23:10:10.578Z,955.0438
2023-05-12T23:11:12.491Z,955.0577
2023-05-12T23:12:14.404Z,955.0700
2023-05-12T23:13:16.370Z,955.0700
2023-05-12T23:14:18.288Z,955.0723
2023-05-12T23:15:20.171Z,955.0692
2023-05-12T23:16:22.093Z,955.0739
2023-05-12T23:17:23.994Z,955.0630
2023-05-12T23:18:25.946Z,955.0569
2023-05-12T23:19:27.837Z,955.0608
2023-05-12T23:20:29.752Z,955.0569
2023-05-12T23:21:31.694Z,955.0423
2023-05-12T23:22:33.605Z,955.0415
2023-05-12T23:23:35.520Z,955.0423
2023-05-12T23:24:37.444Z,955.0461
2023-05-12T23:25:39.371Z,955.0492
2023-05-12T23:26:41.262Z,955.0577
2023-05-12T23:27:43.199Z,955.0608
2023-05-12T23:28:45.473Z,955.0515
2023-05-12T23:29:47.024Z,955.0423
2023-05-12T23:30:48.949Z,955.0469
2023-05-12T23:31:50.930Z,955.0623
2023-05-12T23:32:52.950Z,955.0654
2023-05-12T23:33:54.782Z,955.0685
2023-05-12T23:34:56.632Z,955.0770
2023-05-12T23:35:58.579Z,955.0638
2023-05-12T23:37:00.462Z,955.0623
2023-05-12T23:38:02.398Z,955.0438
2023-05-12T23:39:04.312Z,955.0277
2023-05-12T23:40:06.213Z,955.0146
2023-05-12T23:41:08.142Z,955.0115
2023-05-12T23:42:10.066Z,955.0023
2023-05-12T23:43:11.969Z,954.9877
2023-05-12T23:44:13.898Z,954.9869
2023-05-12T23:45:15.844Z,954.9854
2023-05-12T23:46:17.786Z,954.9908
2023-05-12T23:47:19.650Z,954.9892
2023-05-12T23:48:21.580Z,954.9969
2023-05-12T23:49:23.529Z,954.9908
2023-05-12T23:50:25.412Z,954.9846